Time;durP1;ratioP1;P1;durP2;ratioP2;P2;SDS_P1;SDS_P2;PMS_P1;PMS_P2;Temp;Humidity;BMP_temperature;BMP_pressure;BME280_temperature;BME280_humidity;BME280_pressure;Samples;Min_cycle;Max_cycle;Signal;HPM_P1;HPM_P2
2021/03/26 00:01:40;;;;;;;15.18;9.15;;;6.90;99.90;;;;;;5091041;28;20040;-57
2021/03/26 00:04:07;;;;;;;18.15;10.05;;;6.90;99.90;;;;;;5099737;28;20071;-56
2021/03/26 00:06:37;;;;;;;20.17;9.07;;;6.90;99.90;;;;;;5100454;28;20043;-53
2021/03/26 00:09:04;;;;;;;15.15;8.73;;;6.90;99.90;;;;;;5101138;28;20085;-58
2021/03/26 00:11:30;;;;;;;18.52;9.23;;;6.90;99.90;;;;;;5095238;28;20064;-55
2021/03/26 00:13:57;;;;;;;16.48;8.55;;;6.80;99.90;;;;;;5078285;28;20048;-58
2021/03/26 00:16:23;;;;;;;15.77;9.10;;;6.80;99.90;;;;;;5066423;28;20044;-57
2021/03/26 00:18:49;;;;;;;18.33;9.35;;;6.70;99.90;;;;;;5075402;28;20036;-59
2021/03/26 00:21:16;;;;;;;22.05;10.05;;;6.70;99.90;;;;;;5086636;28;20142;-56
2021/03/26 00:23:42;;;;;;;28.67;15.15;;;6.60;99.90;;;;;;5087835;28;20036;-58
2021/03/26 00:26:08;;;;;;;32.83;17.60;;;6.60;99.90;;;;;;5087098;28;20067;-58
2021/03/26 00:28:34;;;;;;;35.08;17.55;;;6.60;99.90;;;;;;5087037;28;20155;-57
2021/03/26 00:31:00;;;;;;;;;;;6.60;99.90;;;;;;5088002;28;20115;-57
2021/03/26 00:33:25;;;;;;;31.02;15.98;;;6.60;99.90;;;;;;5087017;28;19923;-57
2021/03/26 00:35:51;;;;;;;;;;;6.60;99.90;;;;;;5081957;28;20764;-51
2021/03/26 00:38:17;;;;;;;29.40;15.52;;;6.60;99.90;;;;;;5086230;28;20407;-55
2021/03/26 00:40:42;;;;;;;;;;;6.70;99.90;;;;;;5088023;28;20036;-55
2021/03/26 00:43:08;;;;;;;30.77;15.63;;;6.70;99.90;;;;;;5087344;28;20007;-54
2021/03/26 00:45:35;;;;;;;;;;;6.70;99.90;;;;;;5087320;28;20071;-54
2021/03/26 00:48:02;;;;;;;32.65;16.52;;;6.70;99.90;;;;;;5082271;28;19916;-58
2021/03/26 00:50:35;;;;;;;29.45;16.33;;;6.70;99.90;;;;;;5086659;28;20075;-53
2021/03/26 00:53:05;;;;;;;32.80;14.93;;;6.70;99.90;;;;;;5086889;28;20044;-50
2021/03/26 00:55:31;;;;;;;30.52;16.27;;;6.70;99.90;;;;;;5086925;28;20040;-57
2021/03/26 00:57:57;;;;;;;;;;;6.70;99.90;;;;;;5087916;28;20040;-57
2021/03/26 01:00:25;;;;;;;27.90;15.10;;;6.70;99.90;;;;;;5086995;28;19923;-56
2021/03/26 01:02:51;;;;;;;34.38;16.52;;;6.70;99.90;;;;;;5086231;28;20048;-56
2021/03/26 01:05:19;;;;;;;;;;;6.70;99.90;;;;;;5087300;28;20044;-57
2021/03/26 01:07:46;;;;;;;29.02;14.52;;;6.60;99.90;;;;;;5078433;28;19924;-54
2021/03/26 01:10:15;;;;;;;30.50;15.73;;;6.60;99.90;;;;;;5079702;28;20032;-60
2021/03/26 01:12:41;;;;;;;31.92;16.65;;;6.60;99.90;;;;;;5086480;28;20044;-56
2021/03/26 01:15:08;;;;;;;;;;;6.60;99.90;;;;;;5087255;28;20309;-56
2021/03/26 01:17:33;;;;;;;32.00;16.03;;;6.50;99.90;;;;;;5085001;28;19920;-53
2021/03/26 01:19:59;;;;;;;;;;;6.50;99.90;;;;;;5084080;28;20335;-56
2021/03/26 01:22:25;;;;;;;26.25;14.50;;;6.40;99.90;;;;;;5086634;28;19924;-57
2021/03/26 01:24:50;;;;;;;;;;;6.40;99.90;;;;;;5087586;28;20043;-57
2021/03/26 01:27:16;;;;;;;27.40;14.07;;;6.30;99.90;;;;;;5085255;28;19926;-58
2021/03/26 01:29:42;;;;;;;30.98;15.77;;;6.20;99.90;;;;;;5085780;28;20040;-55
2021/03/26 01:32:08;;;;;;;;;;;6.20;99.90;;;;;;5085123;28;20047;-55
2021/03/26 01:34:34;;;;;;;31.67;16.38;;;6.20;99.90;;;;;;5085503;28;19919;-57
2021/03/26 01:36:59;;;;;;;;;;;6.20;99.90;;;;;;5087286;28;20251;-59
2021/03/26 01:39:25;;;;;;;32.15;16.75;;;6.10;99.90;;;;;;5086430;28;19916;-58
2021/03/26 01:41:50;;;;;;;;;;;6.10;99.90;;;;;;5086773;28;20044;-59
2021/03/26 01:44:19;;;;;;;36.42;17.40;;;6.20;99.90;;;;;;5086097;28;19974;-56
2021/03/26 01:46:46;;;;;;;34.05;18.58;;;6.20;99.90;;;;;;5085940;28;20044;-54
2021/03/26 01:49:12;;;;;;;31.00;18.15;;;6.30;99.90;;;;;;5080053;28;20119;-59
2021/03/26 01:51:39;;;;;;;;;;;6.40;99.90;;;;;;5086350;28;20143;-59
2021/03/26 01:54:08;;;;;;;29.63;16.60;;;6.30;99.90;;;;;;5086583;28;19969;-56
2021/03/26 01:56:34;;;;;;;37.10;21.42;;;6.40;99.90;;;;;;5083464;28;20070;-56
2021/03/26 01:59:00;;;;;;;40.08;22.05;;;6.40;99.90;;;;;;5082385;28;20032;-57
2021/03/26 02:01:28;;;;;;;;;;;6.40;99.90;;;;;;5084859;28;20048;-53
2021/03/26 02:03:58;;;;;;;38.92;20.48;;;6.50;99.90;;;;;;5084354;28;20375;-54
2021/03/26 02:06:29;;;;;;;41.22;21.30;;;6.50;99.90;;;;;;5076962;28;20047;-53
2021/03/26 02:09:37;;;;;;;37.20;19.40;;;6.40;99.90;;;;;;5065305;28;20081;-58
2021/03/26 02:12:08;;;;;;;;;;;6.50;99.90;;;;;;5030526;28;20572;-58
2021/03/26 02:14:44;;;;;;;31.10;16.73;;;6.50;99.90;;;;;;5065883;28;19916;-55
2021/03/26 02:17:16;;;;;;;33.65;18.63;;;6.50;99.90;;;;;;5064008;28;20048;-56
2021/03/26 02:19:48;;;;;;;42.00;18.85;;;6.50;99.90;;;;;;5079942;28;20043;-54
2021/03/26 02:22:15;;;;;;;34.50;19.10;;;6.50;99.90;;;;;;5084306;28;20089;-54
2021/03/26 02:24:42;;;;;;;35.47;20.08;;;6.40;99.90;;;;;;5084805;28;20694;-59
2021/03/26 02:27:16;;;;;;;40.28;21.48;;;6.40;99.90;;;;;;5085917;28;20496;-55
2021/03/26 02:29:42;;;;;;;36.45;20.75;;;6.40;99.90;;;;;;5085507;28;20048;-58
2021/03/26 02:32:23;;;;;;;37.28;21.40;;;6.40;99.90;;;;;;5083459;28;20036;-55
2021/03/26 02:35:14;;;;;;;40.13;21.90;;;6.40;99.90;;;;;;5083712;28;20085;-59
2021/03/26 02:38:02;;;;;;;39.35;22.20;;;6.50;99.90;;;;;;5079583;28;20064;-58
2021/03/26 02:40:41;;;;;;;37.13;19.80;;;6.50;99.90;;;;;;5085314;28;20056;-57
2021/03/26 02:43:23;;;;;;;39.90;20.45;;;6.50;99.90;;;;;;5084629;28;20058;-53
2021/03/26 02:45:59;;;;;;;42.15;21.92;;;6.50;99.90;;;;;;5084270;28;20035;-52
2021/03/26 02:48:37;;;;;;;38.08;22.05;;;6.40;99.90;;;;;;5079829;28;20040;-58
2021/03/26 02:51:44;;;;;;;41.03;22.00;;;6.40;99.90;;;;;;5084708;28;20087;-58
2021/03/26 02:54:22;;;;;;;40.42;22.20;;;6.40;99.90;;;;;;5011980;28;20050;-56
2021/03/26 02:57:00;;;;;;;38.35;21.80;;;6.50;99.90;;;;;;5084459;28;20105;-51
2021/03/26 02:59:38;;;;;;;41.22;23.08;;;6.50;99.90;;;;;;5085057;28;20052;-59
2021/03/26 03:02:07;;;;;;;44.75;21.88;;;6.50;99.90;;;;;;5083165;28;20039;-59
2021/03/26 03:04:51;;;;;;;40.75;20.23;;;6.40;99.90;;;;;;5084502;28;20055;-55
2021/03/26 03:07:24;;;;;;;41.63;22.98;;;6.50;99.90;;;;;;5080055;28;20054;-57
2021/03/26 03:09:55;;;;;;;39.65;22.00;;;6.40;99.90;;;;;;5085012;28;20625;-58
2021/03/26 03:12:30;;;;;;;42.45;22.23;;;6.40;99.90;;;;;;5071633;28;20044;-59
2021/03/26 03:15:22;;;;;;;42.00;23.05;;;6.40;99.90;;;;;;5064244;28;20475;-58
2021/03/26 03:17:59;;;;;;;39.28;21.77;;;6.30;99.90;;;;;;5036506;28;20573;-55
2021/03/26 03:20:39;;;;;;;37.00;21.85;;;6.30;99.90;;;;;;5076720;28;20050;-55
2021/03/26 03:23:17;;;;;;;43.53;22.67;;;6.40;99.90;;;;;;5084602;28;20631;-58
2021/03/26 03:25:43;;;;;;;44.20;23.17;;;6.40;99.90;;;;;;5085233;28;20047;-56
2021/03/26 03:28:23;;;;;;;;;;;6.40;99.90;;;;;;5085536;28;20077;-59
2021/03/26 03:31:04;;;;;;;41.58;20.15;;;6.50;99.90;;;;;;5083822;28;19956;-57
2021/03/26 03:33:53;;;;;;;38.38;22.50;;;6.50;99.90;;;;;;5084442;28;20089;-56
2021/03/26 03:36:22;;;;;;;39.67;22.70;;;6.50;99.90;;;;;;5085114;28;20083;-53
2021/03/26 03:39:13;;;;;;;42.10;23.52;;;6.60;99.90;;;;;;5084287;28;20075;-56
2021/03/26 03:41:45;;;;;;;43.88;23.02;;;6.60;99.90;;;;;;5084071;28;20407;-55
2021/03/26 03:44:26;;;;;;;39.85;21.92;;;6.50;99.90;;;;;;5083954;28;20036;-56
2021/03/26 03:47:07;;;;;;;37.13;22.05;;;6.60;99.90;;;;;;5083794;28;20071;-58
2021/03/26 03:49:51;;;;;;;39.08;21.50;;;6.50;99.90;;;;;;5080277;28;20048;-54
2021/03/26 03:52:33;;;;;;;40.47;21.38;;;6.50;99.90;;;;;;5087782;28;20780;-59
2021/03/26 03:55:14;;;;;;;41.20;21.33;;;6.50;99.90;;;;;;5090397;28;20044;-56
2021/03/26 03:57:45;;;;;;;38.45;20.27;;;6.50;99.90;;;;;;5083699;28;20044;-55
2021/03/26 04:00:22;;;;;;;39.15;21.00;;;6.40;99.90;;;;;;5087729;28;20115;-57
2021/03/26 04:03:20;;;;;;;34.45;19.92;;;6.40;99.90;;;;;;5088141;28;20079;-56
2021/03/26 04:06:06;;;;;;;40.67;21.27;;;6.40;99.90;;;;;;5087627;28;20067;-57
2021/03/26 04:08:45;;;;;;;35.72;19.88;;;6.40;99.90;;;;;;5088082;28;20443;-57
2021/03/26 04:11:39;;;;;;;40.10;21.63;;;6.20;99.90;;;;;;5084122;28;20051;-58
2021/03/26 04:14:14;;;;;;;40.17;21.30;;;6.20;99.90;;;;;;5066652;28;20076;-52
2021/03/26 04:16:45;;;;;;;40.63;21.52;;;6.00;99.90;;;;;;5066931;28;20500;-58
2021/03/26 04:19:16;;;;;;;40.15;20.75;;;6.00;99.90;;;;;;5083944;28;20127;-53
2021/03/26 04:21:45;;;;;;;37.08;21.13;;;5.90;99.90;;;;;;5086899;28;20086;-58
2021/03/26 04:24:14;;;;;;;36.25;21.45;;;5.80;99.90;;;;;;5086681;28;20044;-58
2021/03/26 04:26:43;;;;;;;38.38;21.00;;;5.80;99.90;;;;;;5087628;28;20040;-65
2021/03/26 04:29:23;;;;;;;41.10;21.40;;;5.80;99.90;;;;;;5087092;28;20036;-55
2021/03/26 04:31:57;;;;;;;37.35;20.33;;;5.70;99.90;;;;;;5086420;28;20042;-55
2021/03/26 04:34:23;;;;;;;37.28;19.83;;;5.70;99.90;;;;;;5084284;28;20079;-57
2021/03/26 04:37:01;;;;;;;;;;;5.60;99.90;;;;;;5074914;28;20078;-55
2021/03/26 04:39:51;;;;;;;34.97;18.90;;;5.60;99.90;;;;;;5078484;28;19927;-58
2021/03/26 04:42:47;;;;;;;39.63;21.55;;;5.50;99.90;;;;;;5086427;28;20040;-58
2021/03/26 04:45:20;;;;;;;42.95;21.20;;;5.40;99.90;;;;;;5073626;28;20154;-57
2021/03/26 04:47:54;;;;;;;44.15;22.85;;;5.40;99.90;;;;;;5070823;28;20115;-56
2021/03/26 04:50:29;;;;;;;38.08;21.25;;;5.40;99.90;;;;;;5086622;28;20032;-54
2021/03/26 04:53:03;;;;;;;43.13;22.35;;;5.30;99.90;;;;;;5086999;28;20071;-52
2021/03/26 04:55:35;;;;;;;39.10;21.80;;;5.30;99.90;;;;;;5086671;28;20067;-54
2021/03/26 04:58:16;;;;;;;40.13;21.25;;;5.30;99.90;;;;;;5086766;28;20044;-56
2021/03/26 05:00:53;;;;;;;41.20;22.33;;;5.30;99.90;;;;;;5086217;28;20438;-54
2021/03/26 05:03:34;;;;;;;36.38;19.98;;;5.20;99.90;;;;;;5084413;28;20667;-55
2021/03/26 05:06:15;;;;;;;41.78;21.27;;;5.20;99.90;;;;;;5081608;28;20068;-58
2021/03/26 05:08:45;;;;;;;41.17;21.30;;;5.10;99.90;;;;;;5086534;28;20154;-53
2021/03/26 05:11:13;;;;;;;42.35;21.55;;;5.10;99.90;;;;;;5086295;28;20043;-55
2021/03/26 05:13:44;;;;;;;40.88;21.35;;;5.00;99.90;;;;;;5085464;28;20093;-56
2021/03/26 05:16:20;;;;;;;44.60;23.23;;;5.00;99.90;;;;;;5085237;28;20032;-56
2021/03/26 05:18:53;;;;;;;42.90;22.23;;;5.00;99.90;;;;;;5082276;28;20089;-57
2021/03/26 05:21:38;;;;;;;51.03;23.73;;;4.90;99.90;;;;;;5085834;28;20036;-57
2021/03/26 05:24:18;;;;;;;45.97;23.52;;;4.90;99.90;;;;;;5086013;28;20046;-54
2021/03/26 05:26:43;;;;;;;39.60;21.52;;;4.80;99.90;;;;;;5086200;28;20482;-59
2021/03/26 05:29:09;;;;;;;;;;;4.80;99.90;;;;;;5086683;28;20119;-54
2021/03/26 05:31:46;;;;;;;42.40;21.00;;;4.90;99.90;;;;;;5085542;28;19922;-58
2021/03/26 05:34:30;;;;;;;42.92;23.27;;;4.90;99.90;;;;;;5086808;28;20044;-57
2021/03/26 05:37:05;;;;;;;45.55;22.83;;;4.90;99.90;;;;;;5086582;28;20040;-55
2021/03/26 05:39:34;;;;;;;43.38;23.85;;;5.00;99.90;;;;;;5086504;28;20043;-57
2021/03/26 05:42:19;;;;;;;48.40;23.55;;;5.00;99.90;;;;;;5085669;28;20040;-57
2021/03/26 05:45:00;;;;;;;40.88;21.33;;;5.10;99.90;;;;;;5085573;28;20135;-58
2021/03/26 05:47:53;;;;;;;42.55;21.08;;;5.20;99.90;;;;;;5084698;28;20130;-58
2021/03/26 05:50:49;;;;;;;41.65;22.52;;;5.20;99.90;;;;;;5085878;28;20066;-57
2021/03/26 05:53:24;;;;;;;44.53;23.35;;;5.30;99.90;;;;;;5082483;28;20122;-58
2021/03/26 05:56:08;;;;;;;44.70;22.50;;;5.20;99.90;;;;;;5084752;28;20044;-53
2021/03/26 05:58:50;;;;;;;50.05;23.25;;;5.20;99.90;;;;;;5085434;28;20399;-55
2021/03/26 06:02:31;;;;;;;50.35;24.50;;;5.20;99.90;;;;;;5084586;28;20567;-55
2021/03/26 06:05:21;;;;;;;47.85;23.95;;;5.10;99.90;;;;;;5051505;28;20110;-56
2021/03/26 06:08:41;;;;;;;42.15;22.95;;;5.10;99.90;;;;;;5067906;28;20032;-58
2021/03/26 06:12:05;;;;;;;47.00;23.60;;;5.10;99.90;;;;;;5066454;28;20035;-58
2021/03/26 06:15:25;;;;;;;44.85;22.23;;;5.30;99.90;;;;;;5066159;28;20654;-59
2021/03/26 06:18:23;;;;;;;34.00;19.63;;;5.50;99.90;;;;;;5062156;28;20024;-55
2021/03/26 06:21:27;;;;;;;32.88;18.67;;;5.70;99.90;;;;;;5071939;28;20906;-58
2021/03/26 06:24:43;;;;;;;33.47;17.58;;;5.90;99.90;;;;;;5066944;28;20044;-59
2021/03/26 06:27:14;;;;;;;33.03;18.05;;;6.50;99.90;;;;;;5077109;28;20040;-56
2021/03/26 06:29:52;;;;;;;38.53;19.83;;;6.90;99.90;;;;;;5065161;28;20088;-59
2021/03/26 06:32:53;;;;;;;31.90;18.10;;;6.90;99.90;;;;;;5068171;28;20512;-55
2021/03/26 06:35:47;;;;;;;39.20;20.05;;;6.80;99.90;;;;;;5084310;28;20051;-57
2021/03/26 06:38:33;;;;;;;31.10;17.52;;;6.60;99.90;;;;;;5084710;28;20630;-57
2021/03/26 06:41:02;;;;;;;36.95;19.27;;;7.10;99.90;;;;;;5084759;28;20085;-60
2021/03/26 06:44:12;;;;;;;31.50;18.48;;;7.40;99.90;;;;;;5085896;28;20059;-58
2021/03/26 06:46:54;;;;;;;34.40;19.13;;;7.50;99.90;;;;;;5062929;28;20604;-60
2021/03/26 06:50:01;;;;;;;33.15;18.92;;;7.70;99.90;;;;;;5071550;28;20044;-56
2021/03/26 06:52:38;;;;;;;38.33;18.30;;;7.80;99.90;;;;;;5085482;28;20110;-50
2021/03/26 06:55:35;;;;;;;35.25;20.48;;;8.30;99.90;;;;;;5086962;28;20040;-55
2021/03/26 06:59:17;;;;;;;40.47;20.27;;;8.40;99.90;;;;;;5085015;28;20055;-59
2021/03/26 07:02:12;;;;;;;37.40;21.98;;;8.50;99.90;;;;;;4942362;29;20427;-51
2021/03/26 07:05:06;;;;;;;38.90;22.75;;;8.40;99.90;;;;;;4944992;29;20062;-53
2021/03/26 07:07:34;;;;;;;38.17;22.17;;;8.50;99.90;;;;;;5069891;28;20055;-55
2021/03/26 07:10:11;;;;;;;36.80;21.13;;;8.90;99.90;;;;;;5088875;28;20488;-59
2021/03/26 07:12:55;;;;;;;36.72;21.60;;;9.10;99.90;;;;;;5083683;28;20810;-56
2021/03/26 07:15:29;;;;;;;41.58;21.95;;;9.40;99.90;;;;;;5086050;28;20059;-56
2021/03/26 07:18:01;;;;;;;34.92;20.20;;;9.40;99.90;;;;;;5077392;28;20066;-57
2021/03/26 07:21:04;;;;;;;35.25;20.38;;;9.60;99.90;;;;;;5065739;28;20044;-57
2021/03/26 07:23:46;;;;;;;32.65;20.33;;;9.60;99.90;;;;;;5076538;28;20101;-59
2021/03/26 07:26:24;;;;;;;37.33;19.95;;;10.00;99.90;;;;;;5089354;28;20052;-56
2021/03/26 07:29:30;;;;;;;37.13;21.45;;;9.80;99.90;;;;;;5090877;28;20032;-54
2021/03/26 07:32:35;;;;;;;30.00;18.55;;;9.70;99.90;;;;;;5087647;28;20048;-57
2021/03/26 07:35:38;;;;;;;36.20;20.63;;;9.90;99.90;;;;;;5085460;28;20036;-57
2021/03/26 07:38:44;;;;;;;32.97;18.50;;;9.90;99.90;;;;;;5089140;28;20036;-54
2021/03/26 07:41:44;;;;;;;33.60;19.60;;;9.90;99.90;;;;;;5086079;28;20044;-53
2021/03/26 07:44:55;;;;;;;30.90;19.33;;;9.90;99.90;;;;;;5073755;28;20047;-57
2021/03/26 07:47:43;;;;;;;32.42;18.45;;;9.90;99.90;;;;;;5085030;28;20036;-56
2021/03/26 07:50:19;;;;;;;31.10;18.88;;;10.00;99.90;;;;;;5086988;28;20090;-52
2021/03/26 07:53:04;;;;;;;30.35;17.80;;;10.20;99.80;;;;;;5088172;28;20093;-53
2021/03/26 07:55:37;;;;;;;30.58;19.45;;;10.30;99.70;;;;;;5087112;28;20035;-52
2021/03/26 07:58:28;;;;;;;30.48;18.75;;;10.50;98.70;;;;;;5088870;28;20119;-53
2021/03/26 08:01:19;;;;;;;31.58;18.60;;;10.80;98.30;;;;;;5087659;28;20085;-55
2021/03/26 08:04:12;;;;;;;29.80;18.05;;;11.30;97.20;;;;;;5087869;28;20154;-56
2021/03/26 08:06:52;;;;;;;28.63;17.10;;;11.70;96.50;;;;;;5088344;28;20484;-53
2021/03/26 08:09:33;;;;;;;30.95;16.50;;;11.80;95.70;;;;;;5088098;28;20089;-56
2021/03/26 08:12:04;;;;;;;29.42;16.40;;;12.20;94.80;;;;;;5088131;28;20036;-56
2021/03/26 08:14:53;;;;;;;25.58;15.48;;;12.70;93.70;;;;;;5090358;28;20500;-60
2021/03/26 08:17:26;;;;;;;23.23;14.80;;;13.40;92.80;;;;;;5072669;28;20078;-59
2021/03/26 08:20:20;;;;;;;26.40;15.30;;;13.70;91.10;;;;;;5083430;28;20767;-59
2021/03/26 08:23:03;;;;;;;20.67;13.98;;;13.70;90.10;;;;;;5068320;28;20053;-58
2021/03/26 08:25:51;;;;;;;21.55;13.13;;;14.10;90.30;;;;;;5067218;28;20440;-58
2021/03/26 08:28:41;;;;;;;26.98;13.85;;;14.20;86.20;;;;;;5066699;28;20040;-55
2021/03/26 08:31:29;;;;;;;28.33;14.63;;;13.20;86.80;;;;;;5067683;28;20036;-55
2021/03/26 08:34:03;;;;;;;23.30;13.70;;;12.00;91.00;;;;;;5068519;28;20048;-53
2021/03/26 08:36:57;;;;;;;25.02;14.18;;;11.20;91.90;;;;;;5077734;28;20411;-57
2021/03/26 08:39:29;;;;;;;23.55;14.07;;;10.70;93.50;;;;;;5082498;28;20511;-58
2021/03/26 08:42:00;;;;;;;29.55;14.50;;;10.30;94.50;;;;;;5082012;28;20044;-57
2021/03/26 08:44:28;;;;;;;25.95;13.27;;;10.30;94.90;;;;;;5081819;28;20039;-56
2021/03/26 08:46:56;;;;;;;24.80;12.98;;;10.20;94.50;;;;;;5086502;28;20040;-54
2021/03/26 08:49:35;;;;;;;21.98;13.85;;;10.30;95.10;;;;;;5084196;28;20058;-58
2021/03/26 08:52:32;;;;;;;22.27;13.23;;;10.50;94.70;;;;;;5079205;28;20051;-52
2021/03/26 08:55:20;;;;;;;24.30;13.43;;;10.70;94.40;;;;;;5085489;28;20084;-54
2021/03/26 08:58:04;;;;;;;25.10;14.70;;;10.90;95.10;;;;;;5086009;28;20043;-56
2021/03/26 09:00:49;;;;;;;23.77;13.23;;;11.00;93.90;;;;;;5079162;28;20036;-57
2021/03/26 09:03:18;;;;;;;21.92;11.65;;;10.90;93.70;;;;;;5085520;28;20051;-55
2021/03/26 09:06:12;;;;;;;22.90;13.77;;;11.10;94.20;;;;;;5085005;28;20056;-55
2021/03/26 09:08:58;;;;;;;22.13;12.43;;;11.00;93.80;;;;;;5087239;28;20116;-54
2021/03/26 09:11:49;;;;;;;21.77;12.45;;;11.10;93.90;;;;;;5076749;28;20772;-58
2021/03/26 09:14:35;;;;;;;20.95;13.00;;;11.10;93.90;;;;;;5074933;28;20044;-58
2021/03/26 09:17:16;;;;;;;19.67;12.25;;;11.30;93.60;;;;;;5085322;28;20047;-54
2021/03/26 09:19:53;;;;;;;20.60;12.68;;;11.40;93.60;;;;;;5076915;28;20063;-55
2021/03/26 09:22:49;;;;;;;19.95;12.70;;;11.50;93.70;;;;;;5086022;28;20048;-58
2021/03/26 09:25:33;;;;;;;23.10;12.70;;;11.70;93.30;;;;;;5087018;28;20067;-57
2021/03/26 09:28:07;;;;;;;22.90;12.13;;;11.80;92.90;;;;;;5086404;28;20040;-57
2021/03/26 09:31:15;;;;;;;18.05;11.48;;;11.60;92.30;;;;;;5083306;28;20040;-54
2021/03/26 09:33:56;;;;;;;24.95;12.80;;;11.90;92.40;;;;;;5065063;28;20515;-58
2021/03/26 09:36:27;;;;;;;25.60;13.88;;;12.00;92.70;;;;;;5065559;28;20059;-57
2021/03/26 09:39:19;;;;;;;20.67;12.07;;;12.00;92.60;;;;;;5065214;28;20037;-56
2021/03/26 09:41:54;;;;;;;23.40;13.45;;;11.70;92.20;;;;;;5062038;28;20157;-55
2021/03/26 09:44:25;;;;;;;28.17;14.52;;;11.40;92.80;;;;;;5065454;28;20060;-53
2021/03/26 09:47:05;;;;;;;23.08;14.13;;;11.30;92.70;;;;;;5082306;28;20441;-53
2021/03/26 09:49:41;;;;;;;22.75;13.18;;;11.20;93.40;;;;;;5079039;28;20127;-56
2021/03/26 09:52:28;;;;;;;20.80;12.40;;;11.30;93.20;;;;;;5085010;28;20097;-56
2021/03/26 09:55:24;;;;;;;21.50;13.38;;;11.30;93.50;;;;;;5085858;28;20048;-55
2021/03/26 09:58:15;;;;;;;27.35;16.85;;;11.20;92.80;;;;;;5084852;28;20462;-55
2021/03/26 10:01:07;;;;;;;25.83;14.15;;;11.20;93.60;;;;;;5084973;28;20040;-55
2021/03/26 10:03:44;;;;;;;25.17;12.68;;;11.30;93.10;;;;;;5082854;28;20036;-58
2021/03/26 10:06:35;;;;;;;27.25;14.13;;;11.40;93.70;;;;;;5087142;28;20036;-54
2021/03/26 10:09:32;;;;;;;25.95;14.90;;;11.40;93.40;;;;;;5085232;28;20442;-59
2021/03/26 10:12:13;;;;;;;18.10;10.70;;;11.70;94.20;;;;;;5067247;28;20711;-56
2021/03/26 10:15:01;;;;;;;18.65;10.75;;;12.20;92.60;;;;;;5074821;28;20050;-58
2021/03/26 10:17:41;;;;;;;19.08;10.10;;;12.60;92.40;;;;;;5065611;28;20054;-59
2021/03/26 10:20:10;;;;;;;20.92;9.80;;;12.40;91.40;;;;;;5085481;28;20055;-59
2021/03/26 10:22:57;;;;;;;14.43;9.02;;;12.10;90.70;;;;;;5086297;28;20105;-58
2021/03/26 10:26:01;;;;;;;17.10;9.50;;;11.90;90.20;;;;;;5087156;28;20522;-59
2021/03/26 10:28:33;;;;;;;17.02;9.82;;;11.70;91.10;;;;;;5067246;28;20051;-51
2021/03/26 10:31:11;;;;;;;16.63;9.18;;;11.60;91.60;;;;;;5082616;28;20054;-55
2021/03/26 10:33:48;;;;;;;20.10;10.57;;;11.50;91.10;;;;;;5081689;28;20052;-57
2021/03/26 10:36:23;;;;;;;18.23;9.80;;;11.30;90.80;;;;;;5079721;28;20028;-56
2021/03/26 10:38:53;;;;;;;17.73;8.65;;;11.50;92.10;;;;;;5084464;28;20040;-58
2021/03/26 10:41:33;;;;;;;22.27;8.25;;;11.80;91.20;;;;;;5084657;28;20064;-56
2021/03/26 10:44:20;;;;;;;18.17;8.82;;;11.90;91.80;;;;;;5084907;28;20043;-55
2021/03/26 10:46:51;;;;;;;14.80;7.63;;;11.70;91.30;;;;;;5084236;28;20042;-55
2021/03/26 10:49:23;;;;;;;18.45;9.05;;;11.70;91.00;;;;;;5080119;28;20119;-51
2021/03/26 10:52:03;;;;;;;19.02;8.05;;;11.80;90.80;;;;;;5084757;28;20050;-53
2021/03/26 10:54:42;;;;;;;13.65;6.50;;;11.80;90.70;;;;;;5085330;28;20122;-53
2021/03/26 10:57:36;;;;;;;9.05;5.68;;;12.10;90.90;;;;;;5085045;28;20036;-54
2021/03/26 11:00:04;;;;;;;16.10;8.15;;;12.60;89.00;;;;;;5085148;28;20152;-58
2021/03/26 11:02:42;;;;;;;14.18;8.25;;;12.80;87.50;;;;;;5083363;28;20613;-58
2021/03/26 11:05:07;;;;;;;11.32;6.53;;;12.90;87.70;;;;;;5085757;28;20040;-52
2021/03/26 11:07:37;;;;;;;;;;;13.10;86.70;;;;;;5086792;28;20035;-58
2021/03/26 11:10:04;;;;;;;14.98;8.35;;;13.20;85.80;;;;;;5086341;28;20057;-50
2021/03/26 11:12:48;;;;;;;13.07;7.63;;;12.90;84.40;;;;;;5083471;28;20135;-57
2021/03/26 11:15:25;;;;;;;12.32;7.25;;;12.80;86.20;;;;;;5084430;28;20043;-55
2021/03/26 11:18:06;;;;;;;10.80;7.00;;;12.80;87.70;;;;;;5073953;28;20811;-53
2021/03/26 11:21:01;;;;;;;13.40;6.18;;;13.00;85.40;;;;;;5078463;28;20773;-57
2021/03/26 11:23:41;;;;;;;15.70;7.97;;;13.40;90.30;;;;;;5073055;28;20036;-56
2021/03/26 11:26:28;;;;;;;14.88;7.32;;;13.60;85.30;;;;;;5077996;28;21006;-57
2021/03/26 11:28:53;;;;;;;9.68;6.30;;;13.60;86.40;;;;;;5078665;28;20189;-59
2021/03/26 11:31:25;;;;;;;;;;;13.70;83.60;;;;;;5083421;28;20146;-55
2021/03/26 11:33:51;;;;;;;12.15;6.68;;;13.90;85.00;;;;;;5083299;28;20507;-59
2021/03/26 11:36:35;;;;;;;;;;;14.00;83.90;;;;;;5085964;28;20126;-55
2021/03/26 11:39:12;;;;;;;17.48;10.63;;;14.00;84.30;;;;;;5076772;28;19924;-58
2021/03/26 11:42:05;;;;;;;14.38;8.00;;;14.00;84.30;;;;;;5085025;28;20074;-57
2021/03/26 11:44:33;;;;;;;9.85;6.18;;;13.90;81.20;;;;;;5081869;28;20126;-58
2021/03/26 11:47:05;;;;;;;11.07;6.90;;;13.90;82.50;;;;;;5084013;28;20044;-56
2021/03/26 11:49:40;;;;;;;12.88;6.55;;;13.90;81.70;;;;;;5079143;28;20052;-53
2021/03/26 11:52:09;;;;;;;13.70;7.22;;;13.60;82.90;;;;;;5079960;28;20075;-57
2021/03/26 11:55:01;;;;;;;12.93;7.15;;;13.20;84.30;;;;;;5080356;28;20427;-62
2021/03/26 11:57:41;;;;;;;16.55;10.32;;;13.20;85.50;;;;;;5077482;28;20048;-58
2021/03/26 12:00:19;;;;;;;14.48;7.13;;;13.40;85.30;;;;;;5084133;28;20059;-63
2021/03/26 12:03:06;;;;;;;11.75;6.65;;;13.50;84.10;;;;;;5082243;28;20138;-63
2021/03/26 12:05:35;;;;;;;;;;;13.60;82.20;;;;;;5084022;28;20097;-59
2021/03/26 12:08:07;;;;;;;13.82;7.97;;;13.60;83.90;;;;;;5083413;28;19942;-63
2021/03/26 12:10:43;;;;;;;11.48;6.45;;;13.70;81.50;;;;;;5084769;28;20040;-54
2021/03/26 12:13:30;;;;;;;16.85;7.50;;;13.70;83.00;;;;;;5085982;28;20104;-56
2021/03/26 12:16:21;;;;;;;13.63;7.30;;;13.50;82.30;;;;;;5086160;28;20158;-60
2021/03/26 12:18:57;;;;;;;10.23;6.28;;;13.20;83.00;;;;;;5081603;28;20772;-55
2021/03/26 12:21:29;;;;;;;14.25;7.55;;;13.40;84.60;;;;;;5078665;28;20794;-57
2021/03/26 12:24:11;;;;;;;13.57;6.38;;;13.50;85.30;;;;;;5086519;28;20105;-55
2021/03/26 12:26:43;;;;;;;11.57;6.80;;;13.70;84.30;;;;;;5087373;28;20546;-50
2021/03/26 12:29:46;;;;;;;18.50;8.88;;;13.50;81.00;;;;;;5087831;28;20043;-54
2021/03/26 12:32:12;;;;;;;14.23;6.93;;;13.30;81.40;;;;;;5085119;28;20628;-57
2021/03/26 12:34:49;;;;;;;;;;;13.30;81.60;;;;;;5088881;28;20043;-57
2021/03/26 12:37:41;;;;;;;14.60;6.47;;;13.30;80.50;;;;;;5087613;28;20765;-54
2021/03/26 12:40:29;;;;;;;13.93;7.53;;;13.30;82.80;;;;;;5087984;28;20085;-55
2021/03/26 12:43:18;;;;;;;10.88;6.40;;;13.20;82.70;;;;;;5085721;28;20491;-51
2021/03/26 12:46:06;;;;;;;12.98;6.82;;;13.30;84.00;;;;;;5087987;28;20036;-56
2021/03/26 12:48:50;;;;;;;12.48;6.88;;;13.60;83.40;;;;;;5072444;28;20486;-56
2021/03/26 12:51:38;;;;;;;14.35;6.75;;;13.70;84.60;;;;;;5087253;28;20502;-54
2021/03/26 12:54:19;;;;;;;13.80;8.90;;;13.80;80.90;;;;;;5087976;28;20052;-56
2021/03/26 12:57:10;;;;;;;12.70;6.55;;;13.80;80.20;;;;;;5087524;28;20036;-57
2021/03/26 12:59:46;;;;;;;13.88;7.70;;;13.80;81.40;;;;;;5084387;28;20043;-54
2021/03/26 13:02:36;;;;;;;12.30;8.15;;;13.60;79.20;;;;;;5079112;28;20052;-55
2021/03/26 13:05:27;;;;;;;15.95;7.00;;;13.50;81.00;;;;;;5075230;28;20036;-58
2021/03/26 13:08:20;;;;;;;15.85;6.97;;;13.40;82.50;;;;;;5081716;28;20055;-55
2021/03/26 13:11:04;;;;;;;13.75;6.53;;;13.40;79.90;;;;;;5085867;28;20089;-54
2021/03/26 13:14:04;;;;;;;11.68;5.75;;;13.30;81.90;;;;;;5066454;28;20052;-55
2021/03/26 13:16:49;;;;;;;11.27;6.45;;;13.30;80.90;;;;;;5065796;28;20083;-54
2021/03/26 13:19:21;;;;;;;12.75;5.95;;;13.40;82.10;;;;;;5077844;28;20044;-57
2021/03/26 13:22:10;;;;;;;13.60;6.38;;;13.50;81.60;;;;;;5080399;28;20082;-57
2021/03/26 13:24:51;;;;;;;10.57;6.30;;;13.40;80.40;;;;;;5083180;28;20040;-57
2021/03/26 13:27:20;;;;;;;14.75;6.88;;;13.30;82.30;;;;;;5087351;28;20036;-52
2021/03/26 13:30:10;;;;;;;19.70;8.73;;;13.30;82.10;;;;;;5084774;28;20109;-55
2021/03/26 13:32:57;;;;;;;13.85;5.60;;;13.20;82.00;;;;;;5082069;28;20131;-53
2021/03/26 13:35:32;;;;;;;13.18;5.78;;;13.20;81.90;;;;;;5086733;28;20044;-56
2021/03/26 13:38:09;;;;;;;13.07;6.78;;;13.30;81.90;;;;;;5086032;28;20423;-55
2021/03/26 13:40:41;;;;;;;10.32;6.28;;;13.50;80.00;;;;;;5086909;28;20071;-51
2021/03/26 13:43:19;;;;;;;14.85;6.05;;;13.50;80.90;;;;;;5085064;28;20052;-55
2021/03/26 13:45:50;;;;;;;13.60;6.43;;;13.50;80.70;;;;;;5085081;28;20495;-53
2021/03/26 13:48:18;;;;;;;12.70;5.80;;;13.50;80.70;;;;;;5080413;28;20052;-55